createdAt,value
2022-08-03T00:01:40.414Z,4.43
2022-08-03T00:04:08.506Z,3.95
2022-08-03T00:06:37.240Z,4.47
2022-08-03T00:09:05.803Z,4.47
2022-08-03T00:11:33.805Z,3.97
2022-08-03T00:14:01.424Z,3.88
2022-08-03T00:16:28.856Z,4.53
2022-08-03T00:18:56.214Z,4.53
2022-08-03T00:21:23.803Z,4.72
2022-08-03T00:23:52.853Z,5.15
2022-08-03T00:26:20.741Z,4.30
2022-08-03T00:28:48.833Z,4.72
2022-08-03T00:31:16.605Z,4.97
2022-08-03T00:33:59.322Z,4.88
2022-08-03T00:36:30.670Z,5.68
2022-08-03T00:38:58.189Z,4.68
2022-08-03T00:41:25.538Z,4.93
2022-08-03T00:44:02.877Z,4.60
2022-08-03T00:46:30.505Z,5.28
2022-08-03T00:48:57.899Z,4.70
2022-08-03T00:51:25.320Z,4.72
2022-08-03T00:53:52.912Z,4.55
2022-08-03T00:56:28.476Z,4.30
2022-08-03T00:58:56.936Z,3.97
2022-08-03T01:01:33.365Z,4.32
2022-08-03T01:04:20.912Z,4.10
2022-08-03T01:06:56.946Z,4.47
2022-08-03T01:09:42.886Z,4.05
2022-08-03T01:12:16.465Z,4.20
2022-08-03T01:14:50.397Z,4.35
2022-08-03T01:17:47.300Z,4.07
2022-08-03T01:20:15.084Z,4.10
2022-08-03T01:22:45.227Z,4.80
2022-08-03T01:25:28.242Z,4.22
2022-08-03T01:28:08.711Z,4.53
2022-08-03T01:30:41.042Z,4.13
2022-08-03T01:33:12.749Z,4.38
2022-08-03T01:35:51.153Z,4.35
2022-08-03T01:38:22.361Z,4.60
2022-08-03T01:40:59.552Z,4.78
2022-08-03T01:44:26.405Z,4.78
2022-08-03T01:46:18.827Z,4.90
2022-08-03T01:48:47.350Z,4.30
2022-08-03T01:51:16.652Z,4.70
2022-08-03T01:53:44.533Z,5.03
2022-08-03T01:56:12.758Z,5.00
2022-08-03T01:58:40.758Z,4.97
2022-08-03T02:01:09.076Z,4.35
2022-08-03T02:04:00.119Z,5.13
2022-08-03T02:09:26.398Z,5.05
2022-08-03T02:12:13.749Z,4.65
2022-08-03T02:17:38.699Z,4.47
2022-08-03T02:20:08.675Z,5.32
2022-08-03T02:22:39.302Z,5.60
2022-08-03T02:25:07.970Z,5.22
2022-08-03T02:27:39.377Z,6.18
2022-08-03T02:30:15.176Z,5.18
2022-08-03T02:32:44.447Z,5.28
2022-08-03T02:35:21.346Z,5.47
2022-08-03T02:37:53.039Z,5.45
2022-08-03T02:40:21.493Z,6.20
2022-08-03T02:42:51.423Z,5.15
2022-08-03T02:45:20.316Z,5.65
2022-08-03T02:47:53.846Z,5.78
2022-08-03T02:50:23.493Z,5.72
2022-08-03T02:52:51.725Z,5.68
2022-08-03T02:59:01.756Z,5.95
2022-08-03T03:01:30.589Z,5.80
2022-08-03T03:03:58.290Z,6.45
2022-08-03T03:06:25.867Z,6.20
2022-08-03T03:08:59.747Z,6.30
2022-08-03T03:11:28.131Z,6.47
2022-08-03T03:13:56.428Z,6.10
2022-08-03T03:16:25.447Z,6.25
2022-08-03T03:18:53.613Z,6.47
2022-08-03T03:21:21.362Z,6.22
2022-08-03T03:23:49.235Z,5.72
2022-08-03T03:26:16.980Z,6.80
2022-08-03T03:28:44.696Z,6.60
2022-08-03T03:31:12.326Z,7.07
2022-08-03T03:33:39.698Z,6.68
2022-08-03T03:36:07.435Z,6.15
2022-08-03T03:38:35.061Z,6.43
2022-08-03T03:41:02.353Z,6.80
2022-08-03T03:43:29.727Z,6.70
2022-08-03T03:45:58.510Z,7.30
2022-08-03T03:48:26.027Z,6.93
2022-08-03T03:50:53.599Z,7.07
2022-08-03T03:53:34.697Z,6.35
2022-08-03T03:56:03.101Z,7.13
2022-08-03T03:58:31.974Z,7.10
2022-08-03T04:00:59.695Z,7.03
2022-08-03T04:03:27.218Z,6.47
2022-08-03T04:05:54.817Z,6.13
2022-08-03T04:08:22.120Z,6.63
2022-08-03T04:11:08.012Z,7.45
2022-08-03T04:13:37.909Z,8.43
2022-08-03T04:16:06.011Z,7.30
2022-08-03T04:18:34.332Z,7.95
2022-08-03T04:21:03.694Z,7.47
2022-08-03T04:23:32.462Z,8.10
2022-08-03T04:26:15.027Z,8.25
2022-08-03T04:28:44.691Z,7.95
2022-08-03T04:31:13.351Z,7.63
2022-08-03T04:33:41.226Z,7.53
2022-08-03T04:36:19.798Z,8.88
2022-08-03T04:39:07.162Z,6.88
2022-08-03T04:42:07.113Z,7.80
2022-08-03T04:44:28.117Z,7.13
2022-08-03T04:46:56.801Z,8.27
2022-08-03T04:49:24.898Z,7.75
2022-08-03T04:51:52.633Z,7.10
2022-08-03T04:54:20.195Z,8.30
2022-08-03T04:56:47.554Z,7.85
2022-08-03T04:59:14.912Z,7.50
2022-08-03T05:01:56.726Z,7.00
2022-08-03T05:04:43.124Z,7.18
2022-08-03T05:07:11.616Z,7.20
2022-08-03T05:09:50.559Z,7.00
2022-08-03T05:12:20.517Z,7.63
2022-08-03T05:14:47.779Z,7.25
2022-08-03T05:17:15.125Z,7.40
2022-08-03T05:19:42.674Z,7.60
2022-08-03T05:22:10.097Z,7.05
2022-08-03T05:24:38.445Z,6.55
2022-08-03T05:27:06.004Z,6.47
2022-08-03T05:29:33.328Z,6.65
2022-08-03T05:32:04.885Z,6.20
2022-08-03T05:34:35.337Z,6.20
2022-08-03T05:37:02.561Z,5.13
2022-08-03T05:39:29.835Z,5.20
2022-08-03T05:41:57.364Z,5.63
2022-08-03T05:44:24.650Z,4.85
2022-08-03T05:46:52.298Z,5.20
2022-08-03T05:49:20.362Z,5.63
2022-08-03T05:51:47.940Z,4.50
2022-08-03T05:54:56.013Z,4.80
2022-08-03T05:57:14.769Z,4.35
2022-08-03T05:59:53.902Z,4.50
2022-08-03T06:02:28.526Z,4.57
2022-08-03T06:04:56.078Z,4.35
2022-08-03T06:07:23.433Z,4.40
2022-08-03T06:10:35.078Z,3.90
2022-08-03T06:12:38.414Z,3.53
2022-08-03T06:15:12.559Z,3.45
2022-08-03T06:17:47.331Z,3.72
2022-08-03T06:20:28.953Z,4.05
2022-08-03T06:23:00.424Z,3.80
2022-08-03T06:25:28.597Z,3.45
2022-08-03T06:27:56.079Z,3.25
2022-08-03T06:30:23.693Z,3.65
2022-08-03T06:32:51.776Z,3.80
2022-08-03T06:35:19.743Z,3.60
2022-08-03T06:37:48.969Z,3.38
2022-08-03T06:40:21.768Z,3.50
2022-08-03T06:42:52.062Z,3.33
2022-08-03T06:45:40.091Z,3.53
2022-08-03T06:48:11.121Z,2.90
2022-08-03T06:50:39.996Z,3.42
2022-08-03T06:53:07.723Z,3.28
2022-08-03T06:55:35.243Z,2.95
2022-08-03T06:58:09.768Z,2.92
2022-08-03T07:00:37.243Z,2.60
2022-08-03T07:03:04.496Z,2.92
2022-08-03T07:05:37.678Z,2.65
2022-08-03T07:08:05.429Z,2.80
2022-08-03T07:10:32.808Z,3.13
2022-08-03T07:13:00.159Z,2.78
2022-08-03T07:15:54.537Z,3.05
2022-08-03T07:18:16.881Z,2.90
2022-08-03T07:20:45.398Z,2.47
2022-08-03T07:23:19.415Z,2.80
2022-08-03T07:25:47.044Z,2.60
2022-08-03T07:28:14.359Z,2.88
2022-08-03T07:30:44.660Z,2.55
2022-08-03T07:33:13.296Z,2.22
2022-08-03T07:35:40.742Z,2.65
2022-08-03T07:38:08.039Z,2.45
2022-08-03T07:40:35.702Z,2.53
2022-08-03T07:43:03.101Z,2.25
2022-08-03T07:45:33.270Z,2.53
2022-08-03T07:48:01.017Z,2.80
2022-08-03T07:50:28.359Z,2.42
2022-08-03T07:52:55.667Z,2.60
2022-08-03T07:55:24.207Z,2.20
2022-08-03T07:58:07.835Z,2.30
2022-08-03T08:00:35.994Z,2.35
2022-08-03T08:03:03.319Z,2.30
2022-08-03T08:05:31.141Z,2.33
2022-08-03T08:07:58.673Z,2.10
2022-08-03T08:10:25.965Z,2.10
2022-08-03T08:12:56.474Z,2.10
2022-08-03T08:15:36.118Z,2.27
2022-08-03T08:18:10.136Z,1.98
2022-08-03T08:20:41.804Z,2.20
2022-08-03T08:23:41.604Z,2.10
2022-08-03T08:26:06.661Z,1.90
2022-08-03T08:28:34.018Z,1.88
2022-08-03T08:31:02.173Z,2.50
2022-08-03T08:33:42.481Z,2.13
2022-08-03T08:36:16.963Z,1.95
2022-08-03T08:38:44.300Z,2.00
2022-08-03T08:41:12.029Z,2.20
2022-08-03T08:43:39.927Z,3.03
2022-08-03T08:46:11.485Z,2.30
2022-08-03T08:48:41.341Z,2.00
2022-08-03T08:51:09.868Z,1.93
2022-08-03T08:53:37.848Z,1.90
2022-08-03T08:56:05.380Z,2.03
2022-08-03T08:58:37.453Z,2.25
2022-08-03T09:01:06.282Z,1.90
2022-08-03T09:03:34.258Z,2.00
2022-08-03T09:06:02.202Z,2.20
2022-08-03T09:08:30.567Z,1.88
2022-08-03T09:10:58.361Z,2.08
2022-08-03T09:13:25.771Z,1.90
2022-08-03T09:16:17.246Z,1.70
2022-08-03T09:18:48.806Z,1.80
2022-08-03T09:21:35.087Z,1.83
2022-08-03T09:24:06.208Z,2.08
2022-08-03T09:26:35.646Z,1.88
2022-08-03T09:29:13.218Z,1.77
2022-08-03T09:31:43.616Z,1.70
2022-08-03T09:34:12.826Z,1.85
2022-08-03T09:36:44.414Z,1.65
2022-08-03T09:39:15.930Z,2.00
2022-08-03T09:42:07.986Z,1.90
2022-08-03T09:44:39.574Z,1.77
2022-08-03T09:47:07.178Z,1.83
2022-08-03T09:49:34.593Z,1.88
2022-08-03T09:52:33.608Z,2.10
2022-08-03T09:54:53.052Z,2.03
2022-08-03T09:57:25.108Z,1.98
2022-08-03T10:00:04.584Z,1.83
2022-08-03T10:02:35.286Z,2.30
2022-08-03T10:05:03.416Z,1.90
2022-08-03T10:07:30.869Z,1.58
2022-08-03T10:10:31.691Z,1.98
2022-08-03T10:12:49.340Z,2.30
2022-08-03T10:16:21.865Z,1.83
2022-08-03T10:18:04.568Z,1.85
2022-08-03T10:20:32.887Z,1.92
2022-08-03T10:23:00.323Z,1.73
2022-08-03T10:25:33.376Z,1.98
2022-08-03T10:28:02.268Z,1.90
2022-08-03T10:30:31.395Z,1.80
2022-08-03T10:33:51.279Z,1.77
2022-08-03T10:36:09.297Z,1.90
2022-08-03T10:38:38.465Z,1.90
2022-08-03T10:41:06.510Z,1.73
2022-08-03T10:43:36.287Z,1.67
2022-08-03T10:46:05.196Z,1.92
2022-08-03T10:48:33.131Z,1.70
2022-08-03T10:51:08.000Z,1.70
2022-08-03T10:53:36.473Z,1.70
2022-08-03T10:56:35.668Z,1.60
2022-08-03T10:59:14.734Z,1.88
2022-08-03T11:01:59.867Z,1.90
2022-08-03T11:04:29.128Z,2.00
2022-08-03T11:07:23.176Z,1.90
2022-08-03T11:09:55.004Z,1.73
2022-08-03T11:12:30.272Z,2.00
2022-08-03T11:15:08.105Z,1.90
2022-08-03T11:17:46.397Z,1.90
2022-08-03T11:20:41.882Z,1.70
2022-08-03T11:23:09.903Z,1.95
2022-08-03T11:25:55.937Z,1.85
2022-08-03T11:28:27.307Z,1.70
2022-08-03T11:30:54.634Z,1.80
2022-08-03T11:33:31.280Z,2.00
2022-08-03T11:36:02.034Z,1.90
2022-08-03T11:38:29.853Z,1.98
2022-08-03T11:40:57.231Z,1.60
2022-08-03T11:43:31.806Z,1.90
2022-08-03T11:46:02.583Z,1.70
2022-08-03T11:48:37.101Z,1.77
2022-08-03T11:51:06.239Z,1.83
2022-08-03T11:53:34.000Z,1.55
2022-08-03T11:56:12.961Z,1.52
2022-08-03T12:01:27.712Z,1.70
2022-08-03T12:03:55.338Z,1.90
2022-08-03T12:06:22.636Z,1.70
2022-08-03T12:08:49.971Z,1.42
2022-08-03T12:11:17.697Z,1.52
2022-08-03T12:14:35.601Z,1.80
2022-08-03T12:16:33.859Z,1.65
2022-08-03T12:19:05.827Z,1.67
2022-08-03T12:21:33.198Z,1.70
2022-08-03T12:24:01.804Z,1.55
2022-08-03T12:26:30.836Z,1.90
2022-08-03T12:29:08.013Z,1.52
2022-08-03T12:31:35.714Z,1.80
2022-08-03T12:34:04.257Z,1.80
2022-08-03T12:36:32.514Z,1.70
2022-08-03T12:39:07.067Z,1.60
2022-08-03T12:41:38.772Z,1.55
2022-08-03T12:44:09.638Z,1.88
2022-08-03T12:46:37.856Z,1.42
2022-08-03T12:49:12.769Z,1.65
2022-08-03T12:51:43.294Z,1.60
2022-08-03T12:54:16.834Z,1.88
2022-08-03T12:56:57.098Z,1.60
2022-08-03T12:59:35.413Z,1.70
2022-08-03T13:02:16.751Z,1.80
2022-08-03T13:04:46.068Z,1.80
2022-08-03T13:07:14.419Z,1.75
2022-08-03T13:09:42.038Z,1.40
2022-08-03T13:12:13.492Z,1.60
2022-08-03T13:14:41.921Z,1.75
2022-08-03T13:17:09.376Z,1.58
2022-08-03T13:19:37.317Z,1.60
2022-08-03T13:22:14.562Z,1.77
2022-08-03T13:24:42.199Z,1.70
2022-08-03T13:27:30.858Z,1.52
2022-08-03T13:29:57.305Z,1.48
2022-08-03T13:32:24.885Z,1.65
2022-08-03T13:34:52.262Z,1.70
2022-08-03T13:37:19.906Z,1.50
2022-08-03T13:39:58.109Z,1.80
2022-08-03T13:42:34.142Z,2.40
2022-08-03T13:45:02.081Z,1.73
2022-08-03T13:47:29.466Z,1.95
2022-08-03T13:50:00.895Z,1.63
2022-08-03T13:52:30.550Z,1.50
2022-08-03T13:54:57.973Z,1.60
2022-08-03T13:58:05.652Z,1.55
2022-08-03T14:00:13.165Z,1.70
2022-08-03T14:02:58.453Z,1.60
2022-08-03T14:05:32.087Z,1.42
2022-08-03T14:08:04.421Z,1.50
2022-08-03T14:10:33.527Z,1.75
2022-08-03T14:13:00.975Z,1.50
2022-08-03T14:15:28.286Z,1.70
2022-08-03T14:17:56.196Z,1.52
2022-08-03T14:20:37.912Z,1.70
2022-08-03T14:23:07.096Z,1.90
2022-08-03T14:25:49.851Z,1.70
2022-08-03T14:28:20.302Z,1.75
2022-08-03T14:30:47.612Z,1.58
2022-08-03T14:33:14.971Z,1.60
2022-08-03T14:35:42.593Z,1.75
2022-08-03T14:38:09.985Z,1.70
2022-08-03T14:40:37.361Z,1.75
2022-08-03T14:43:04.978Z,1.52
2022-08-03T14:45:32.453Z,1.60
2022-08-03T14:50:28.954Z,1.60
2022-08-03T14:50:51.401Z,1.70
2022-08-03T14:53:19.384Z,1.50
2022-08-03T14:55:49.652Z,1.65
2022-08-03T14:58:22.408Z,1.60
2022-08-03T15:00:51.044Z,1.70
2022-08-03T15:03:22.306Z,1.70
2022-08-03T15:05:53.177Z,1.70
2022-08-03T15:08:21.047Z,1.50
2022-08-03T15:10:49.284Z,1.70
2022-08-03T15:13:17.271Z,1.95
2022-08-03T15:15:44.640Z,1.58
2022-08-03T15:18:12.029Z,1.60
2022-08-03T15:20:45.056Z,1.60
2022-08-03T15:23:14.002Z,1.60
2022-08-03T15:26:29.610Z,1.55
2022-08-03T15:28:29.486Z,1.20
2022-08-03T15:30:57.168Z,1.60
2022-08-03T15:33:24.595Z,1.60
2022-08-03T15:35:51.931Z,1.58
2022-08-03T15:38:19.444Z,1.50
2022-08-03T15:40:46.739Z,1.40
2022-08-03T15:43:14.232Z,1.58
2022-08-03T15:45:42.034Z,1.60
2022-08-03T15:48:09.523Z,1.70
2022-08-03T15:50:36.931Z,1.75
2022-08-03T15:53:04.652Z,1.63
2022-08-03T15:55:32.034Z,1.80
2022-08-03T15:59:04.506Z,1.60
2022-08-03T16:00:46.930Z,1.48
2022-08-03T16:03:14.311Z,1.90
2022-08-03T16:05:41.756Z,2.08
2022-08-03T16:08:13.648Z,1.70
2022-08-03T16:10:41.351Z,1.70
2022-08-03T16:13:08.713Z,1.77
2022-08-03T16:15:38.374Z,1.50
2022-08-03T16:18:06.593Z,1.75
2022-08-03T16:20:35.331Z,1.80
2022-08-03T16:23:10.834Z,1.70
2022-08-03T16:25:42.358Z,1.75
2022-08-03T16:28:14.187Z,1.63
2022-08-03T16:30:42.792Z,1.77
2022-08-03T16:33:11.178Z,1.63
2022-08-03T16:35:38.641Z,2.00
2022-08-03T16:38:09.721Z,1.83
2022-08-03T16:40:38.095Z,1.98
2022-08-03T16:43:18.316Z,1.88
2022-08-03T16:45:47.376Z,1.90
2022-08-03T16:48:15.072Z,1.52
2022-08-03T16:50:42.880Z,1.70
2022-08-03T16:53:16.417Z,1.60
2022-08-03T16:55:54.267Z,1.60
2022-08-03T16:58:24.438Z,1.60
2022-08-03T17:01:06.398Z,1.50
2022-08-03T17:04:02.046Z,1.60
2022-08-03T17:06:35.034Z,1.80
2022-08-03T17:09:08.795Z,1.77
2022-08-03T17:11:47.078Z,1.77
2022-08-03T17:14:21.758Z,1.55
2022-08-03T17:16:53.022Z,2.00
2022-08-03T17:19:23.788Z,1.67
2022-08-03T17:22:04.259Z,1.80
2022-08-03T17:24:33.976Z,1.77
2022-08-03T17:27:08.553Z,1.80
2022-08-03T17:29:38.902Z,1.70
2022-08-03T17:32:17.696Z,1.88
2022-08-03T17:34:46.868Z,1.40
2022-08-03T17:37:27.021Z,1.98
2022-08-03T17:40:03.731Z,1.92
2022-08-03T17:42:33.025Z,2.00
2022-08-03T17:45:03.996Z,2.08
2022-08-03T17:47:42.073Z,2.03
2022-08-03T17:50:24.067Z,2.40
2022-08-03T17:53:07.009Z,4.15
2022-08-03T17:55:55.778Z,2.78
2022-08-03T17:58:35.429Z,2.65
2022-08-03T18:01:03.262Z,2.40
2022-08-03T18:03:57.950Z,3.05
2022-08-03T18:06:29.031Z,2.60
2022-08-03T18:08:57.584Z,2.50
2022-08-03T18:11:37.121Z,2.80
2022-08-03T18:14:16.523Z,2.45
2022-08-03T18:16:45.515Z,3.03
2022-08-03T18:19:14.340Z,2.88
2022-08-03T18:22:03.614Z,3.10
2022-08-03T18:24:30.295Z,2.75
2022-08-03T18:26:58.945Z,2.65
2022-08-03T18:29:27.265Z,2.80
2022-08-03T18:32:02.613Z,3.03
2022-08-03T18:34:34.066Z,2.92
2022-08-03T18:37:07.234Z,2.33
2022-08-03T18:39:49.725Z,2.50
2022-08-03T18:42:19.568Z,2.78
2022-08-03T18:44:54.410Z,2.85
2022-08-03T18:47:50.969Z,3.10
2022-08-03T18:50:26.070Z,3.42
2022-08-03T18:53:14.541Z,3.40
2022-08-03T18:55:59.333Z,2.95
2022-08-03T18:58:34.735Z,3.28
2022-08-03T19:02:00.852Z,3.42
2022-08-03T19:04:31.237Z,3.50
2022-08-03T19:07:09.370Z,3.50
2022-08-03T19:09:48.883Z,3.88
2022-08-03T19:12:31.188Z,3.28
2022-08-03T19:17:55.496Z,3.72
2022-08-03T19:20:30.003Z,3.47
2022-08-03T19:23:16.737Z,3.78
2022-08-03T19:25:51.139Z,3.65
2022-08-03T19:28:21.059Z,4.30
2022-08-03T19:31:00.060Z,3.95
2022-08-03T19:33:31.077Z,4.22
2022-08-03T19:36:19.031Z,4.15
2022-08-03T19:38:54.645Z,3.90
2022-08-03T19:41:24.487Z,3.80
2022-08-03T19:43:59.447Z,4.20
2022-08-03T19:46:30.444Z,4.32
2022-08-03T19:48:58.545Z,4.30
2022-08-03T19:52:03.014Z,3.95
2022-08-03T19:54:29.339Z,3.63
2022-08-03T19:56:57.991Z,5.15
2022-08-03T19:59:26.366Z,4.18
2022-08-03T20:01:53.966Z,4.55
2022-08-03T20:04:22.155Z,4.10
2022-08-03T20:06:49.979Z,4.13
2022-08-03T20:09:18.009Z,4.38
2022-08-03T20:11:46.727Z,4.00
2022-08-03T20:14:20.856Z,3.92
2022-08-03T20:16:54.280Z,3.63
2022-08-03T20:19:22.157Z,3.85
2022-08-03T20:21:50.835Z,3.78
2022-08-03T20:24:25.074Z,4.20
2022-08-03T20:26:54.173Z,4.15
2022-08-03T20:30:05.362Z,3.83
2022-08-03T20:32:13.090Z,4.10
2022-08-03T20:34:40.562Z,3.78
2022-08-03T20:39:56.135Z,3.92
2022-08-03T20:42:23.867Z,3.92
2022-08-03T20:45:05.622Z,4.03
2022-08-03T20:47:35.779Z,3.83
2022-08-03T20:50:03.898Z,4.13
2022-08-03T20:52:31.571Z,4.57
2022-08-03T20:54:59.250Z,4.97
2022-08-03T20:57:33.169Z,4.07
2022-08-03T21:00:01.387Z,4.07
2022-08-03T21:02:30.732Z,4.45
2022-08-03T21:05:03.238Z,4.15
2022-08-03T21:08:06.169Z,4.20
2022-08-03T21:10:38.447Z,5.47
2022-08-03T21:13:08.339Z,3.85
2022-08-03T21:13:13.846Z,3.97
2022-08-03T21:13:17.137Z,4.25
2022-08-03T21:16:12.868Z,4.63
2022-08-03T21:18:36.750Z,4.30
2022-08-03T21:21:05.121Z,4.25
2022-08-03T21:23:40.497Z,4.28
2022-08-03T21:26:17.783Z,4.50
2022-08-03T21:28:45.947Z,4.80
2022-08-03T21:31:13.677Z,4.32
2022-08-03T21:33:41.694Z,4.72
2022-08-03T21:36:15.268Z,4.75
2022-08-03T21:38:42.828Z,4.50
2022-08-03T21:41:10.114Z,4.80
2022-08-03T21:43:37.482Z,4.47
2022-08-03T21:46:06.529Z,4.60
2022-08-03T21:48:39.152Z,4.60
2022-08-03T21:51:07.487Z,4.60
2022-08-03T21:54:02.558Z,4.30
2022-08-03T21:56:23.328Z,5.40
2022-08-03T21:58:53.357Z,4.82
2022-08-03T22:01:23.701Z,5.03
2022-08-03T22:03:53.850Z,4.75
2022-08-03T22:06:22.161Z,4.72
2022-08-03T22:08:53.097Z,4.57
2022-08-03T22:11:20.712Z,5.40
2022-08-03T22:13:48.257Z,4.97
2022-08-03T22:16:16.225Z,5.00
2022-08-03T22:18:44.791Z,4.90
2022-08-03T22:21:14.395Z,4.75
2022-08-03T22:23:43.197Z,4.20
2022-08-03T22:26:13.890Z,4.78
2022-08-03T22:28:41.891Z,4.70
2022-08-03T22:31:57.220Z,4.63
2022-08-03T22:33:56.962Z,5.07
2022-08-03T22:36:25.261Z,4.60
2022-08-03T22:38:52.750Z,4.55
2022-08-03T22:41:20.359Z,5.18
2022-08-03T22:43:47.875Z,5.07
2022-08-03T22:46:18.748Z,4.93
2022-08-03T22:48:46.712Z,4.90
2022-08-03T22:51:15.257Z,5.15
2022-08-03T22:53:44.690Z,5.00
2022-08-03T22:56:12.612Z,4.97
2022-08-03T22:58:40.215Z,4.68
2022-08-03T23:01:09.419Z,4.85
2022-08-03T23:03:59.878Z,4.65
2022-08-03T23:06:29.952Z,5.40
2022-08-03T23:08:57.517Z,4.97
2022-08-03T23:11:25.508Z,5.40
2022-08-03T23:13:53.798Z,5.90
2022-08-03T23:16:28.817Z,5.32
2022-08-03T23:18:58.667Z,4.75
2022-08-03T23:21:59.962Z,5.30
2022-08-03T23:24:25.995Z,5.20
2022-08-03T23:26:57.422Z,4.97
2022-08-03T23:29:26.098Z,5.63
2022-08-03T23:31:53.736Z,5.10
2022-08-03T23:34:21.361Z,5.43
2022-08-03T23:36:49.400Z,5.47
2022-08-03T23:39:18.971Z,5.43
2022-08-03T23:41:48.320Z,5.18
2022-08-03T23:44:16.711Z,5.88
2022-08-03T23:46:44.402Z,5.40
2022-08-03T23:49:11.757Z,6.00
2022-08-03T23:51:46.753Z,5.47
2022-08-03T23:54:21.397Z,5.90
2022-08-03T23:56:54.705Z,6.10
2022-08-03T23:59:32.180Z,5.55
